Time;durP1;ratioP1;P1;durP2;ratioP2;P2;SDS_P1;SDS_P2;PMS_P1;PMS_P2;Temp;Humidity;BMP_temperature;BMP_pressure;BME280_temperature;BME280_humidity;BME280_pressure;Samples;Min_cycle;Max_cycle;Signal;HPM_P1;HPM_P2
2021/11/15 00:00:08;;;;;;;56.08;24.37;;;;;;;5.50;85.10;102180.35;1648085;84;98780;-71
2021/11/15 00:02:34;;;;;;;59.00;24.32;;;;;;;5.52;85.09;102176.37;1657316;84;25741;-70
2021/11/15 00:05:00;;;;;;;55.03;22.37;;;;;;;5.53;85.10;102184.80;1655827;84;108737;-70
2021/11/15 00:07:25;;;;;;;60.85;24.50;;;;;;;5.51;85.02;102182.13;1655845;84;25848;-72
2021/11/15 00:09:51;;;;;;;53.38;21.68;;;;;;;5.49;84.97;102182.56;1656499;84;27422;-71
2021/11/15 00:12:18;;;;;;;58.02;23.67;;;;;;;5.49;85.01;102183.01;1655593;84;98777;-72
2021/11/15 00:14:44;;;;;;;50.88;20.40;;;;;;;5.47;84.91;102190.09;1650231;84;26445;-72
2021/11/15 00:17:11;;;;;;;52.58;22.02;;;;;;;5.43;84.89;102187.88;1654539;84;98946;-71
2021/11/15 00:19:37;;;;;;;52.50;22.32;;;;;;;5.42;84.86;102191.41;1655014;84;25792;-71
2021/11/15 00:22:04;;;;;;;49.70;21.17;;;;;;;5.41;84.86;102192.73;1688659;83;27399;-71
2021/11/15 00:24:30;;;;;;;56.90;23.40;;;;;;;5.39;84.82;102196.73;1688226;83;98783;-71
2021/11/15 00:26:57;;;;;;;59.42;23.02;;;;;;;5.39;84.79;102197.16;1691023;83;25895;-71
2021/11/15 00:29:22;;;;;;;56.85;23.75;;;;;;;5.36;84.75;102194.05;1684455;83;98935;-71
2021/11/15 00:31:48;;;;;;;60.23;22.37;;;;;;;5.36;84.72;102196.72;1696175;83;25806;-72
2021/11/15 00:34:14;;;;;;;53.10;23.07;;;;;;;5.34;84.65;102201.58;1689399;83;27497;-72
2021/11/15 00:36:40;;;;;;;52.23;21.10;;;;;;;5.30;84.64;102201.12;1690118;83;98844;-71
2021/11/15 00:39:06;;;;;;;52.58;20.80;;;;;;;5.30;84.63;102197.14;1684763;83;25801;-71
2021/11/15 00:41:32;;;;;;;49.53;19.35;;;;;;;5.29;84.66;102200.68;1680364;83;98894;-72
2021/11/15 00:43:58;;;;;;;49.65;20.60;;;;;;;5.27;84.62;102208.65;1690490;83;26042;-72
2021/11/15 00:46:24;;;;;;;40.65;18.20;;;;;;;5.25;84.61;102198.45;1689556;83;27433;-71
2021/11/15 00:48:56;;;;;;;37.75;16.05;;;;;;;5.25;84.63;102205.55;1686734;83;98788;-70
2021/11/15 00:51:22;;;;;;;48.13;19.53;;;;;;;5.25;84.57;102206.43;1686779;83;25858;-70
2021/11/15 00:53:48;;;;;;;51.90;20.40;;;;;;;5.21;84.55;102204.64;1684183;83;99059;-70
2021/11/15 00:56:14;;;;;;;46.83;18.50;;;;;;;5.19;84.55;102205.11;1687064;83;25779;-73
2021/11/15 00:58:40;;;;;;;46.88;18.52;;;;;;;5.21;84.62;102201.98;1689785;83;28127;-71
2021/11/15 01:01:06;;;;;;;48.40;19.45;;;;;;;5.18;84.52;102204.66;1688059;83;98689;-71
2021/11/15 01:03:32;;;;;;;41.02;18.55;;;;;;;5.15;84.51;102201.55;1686155;83;25879;-71
2021/11/15 01:05:59;;;;;;;48.92;20.32;;;;;;;5.15;84.54;102194.02;1685040;83;98775;-71
2021/11/15 01:08:26;;;;;;;46.37;19.02;;;;;;;5.16;84.55;102195.80;1686790;83;26327;-71
2021/11/15 01:10:52;;;;;;;48.10;19.17;;;;;;;5.14;84.52;102197.56;1689279;83;28177;-71
2021/11/15 01:13:21;;;;;;;42.10;17.23;;;;;;;5.15;84.56;102194.02;1686163;83;98536;-71
2021/11/15 01:15:47;;;;;;;51.70;19.55;;;;;;;5.15;84.51;102196.23;1687930;83;25788;-70
2021/11/15 01:18:13;;;;;;;43.95;17.87;;;;;;;5.12;84.49;102196.23;1690417;83;98794;-70
2021/11/15 01:20:40;;;;;;;42.80;16.75;;;;;;;5.12;84.53;102191.35;1688987;83;26642;-70
2021/11/15 01:23:08;;;;;;;46.45;17.65;;;;;;;5.13;84.58;102191.80;1694981;83;99030;-70
2021/11/15 01:25:37;;;;;;;42.30;17.55;;;;;;;5.14;84.54;102185.60;1692287;83;25823;-70
2021/11/15 01:28:03;;;;;;;40.78;17.73;;;;;;;5.14;84.55;102185.60;1692709;83;26447;-73
2021/11/15 01:30:29;;;;;;;43.63;17.50;;;;;;;5.14;84.56;102182.94;1691256;83;99196;-71
2021/11/15 01:32:56;;;;;;;40.05;17.32;;;;;;;5.13;84.49;102190.03;1696066;82;25934;-71
2021/11/15 01:35:23;;;;;;;45.38;17.17;;;;;;;5.09;84.49;102191.34;1690798;82;99004;-71
2021/11/15 01:37:50;;;;;;;54.45;19.92;;;;;;;5.09;84.54;102192.23;1692929;82;26275;-72
2021/11/15 01:40:20;;;;;;;40.60;17.02;;;;;;;5.11;84.58;102185.59;1689446;82;26201;-71
2021/11/15 01:42:46;;;;;;;46.60;17.80;;;;;;;5.12;84.54;102187.36;1692267;83;98801;-71
2021/11/15 01:45:18;;;;;;;46.68;19.42;;;;;;;5.06;84.45;102182.91;1689557;82;25776;-71
2021/11/15 01:47:44;;;;;;;43.23;18.73;;;;;;;5.01;84.44;102182.01;1690851;83;98952;-72
2021/11/15 01:50:15;;;;;;;46.90;19.40;;;;;;;5.02;84.59;102185.55;1692365;83;26161;-71
2021/11/15 01:52:39;;;;;;;45.98;17.85;;;;;;;5.01;84.53;102183.78;1690986;83;25324;-71
2021/11/15 01:55:07;;;;;;;49.88;21.33;;;;;;;5.00;84.62;102185.55;1688957;83;98842;-71
2021/11/15 01:57:34;;;;;;;52.48;21.02;;;;;;;5.02;84.67;102183.78;1691464;83;25775;-72
2021/11/15 02:00:03;;;;;;;46.95;19.87;;;;;;;5.00;84.61;102187.31;1691356;83;98915;-71
2021/11/15 02:02:29;;;;;;;57.88;21.20;;;;;;;4.99;84.67;102178.45;1692527;83;26507;-71
2021/11/15 02:04:57;;;;;;;52.48;19.80;;;;;;;4.99;84.64;102184.21;1692048;83;26123;-71
2021/11/15 02:07:25;;;;;;;54.65;21.57;;;;;;;4.98;84.69;102183.77;1690687;83;98587;-72
2021/11/15 02:09:53;;;;;;;47.05;20.52;;;;;;;4.96;84.71;102189.52;1691975;83;25777;-71
2021/11/15 02:12:19;;;;;;;52.38;21.07;;;;;;;4.97;84.78;102191.29;1688486;83;98837;-71
2021/11/15 02:14:45;;;;;;;53.95;21.45;;;;;;;4.97;84.79;102190.84;1694118;83;25784;-71
2021/11/15 02:17:11;;;;;;;57.45;20.50;;;;;;;4.98;84.81;102189.97;1693634;83;99039;-70
2021/11/15 02:19:40;;;;;;;63.95;22.17;;;;;;;4.99;84.78;102193.52;1693115;83;26174;-71
2021/11/15 02:22:06;;;;;;;53.13;21.90;;;;;;;4.98;84.82;102197.05;1691751;83;25768;-71
2021/11/15 02:24:32;;;;;;;61.02;22.37;;;;;;;4.98;84.81;102205.02;1692503;83;98920;-71
2021/11/15 02:26:58;;;;;;;45.28;19.98;;;;;;;4.96;84.77;102194.83;1685293;83;25776;-71
2021/11/15 02:29:24;;;;;;;52.88;22.07;;;;;;;4.96;84.78;102194.83;1692305;83;98966;-71
2021/11/15 02:31:50;;;;;;;53.73;21.65;;;;;;;4.95;84.82;102197.03;1693346;83;26289;-71
2021/11/15 02:34:16;;;;;;;48.75;20.80;;;;;;;4.96;84.80;102202.80;1691723;83;25806;-69
2021/11/15 02:36:41;;;;;;;51.08;19.30;;;;;;;4.95;84.84;102203.68;1687890;83;98860;-69
2021/11/15 02:39:08;;;;;;;56.40;21.52;;;;;;;4.91;84.68;102201.89;1686899;83;25772;-70
2021/11/15 02:41:35;;;;;;;54.70;21.27;;;;;;;4.85;84.72;102194.34;1689234;82;99013;-70
2021/11/15 02:44:06;;;;;;;51.25;21.00;;;;;;;4.83;84.73;102197.87;1689724;83;26462;-69
2021/11/15 02:46:34;;;;;;;55.80;21.02;;;;;;;4.85;84.84;102196.11;1691469;83;25764;-70
2021/11/15 02:49:03;;;;;;;56.13;22.27;;;;;;;4.85;84.86;102193.01;1682979;82;98814;-70
2021/11/15 02:51:29;;;;;;;53.25;20.75;;;;;;;4.88;84.89;102194.35;1688168;83;27139;-70
2021/11/15 02:53:56;;;;;;;52.17;21.27;;;;;;;4.89;84.88;102196.56;1690513;82;99086;-70
2021/11/15 02:56:22;;;;;;;55.43;21.90;;;;;;;4.92;84.88;102193.03;1693199;83;25796;-70
2021/11/15 02:58:47;;;;;;;59.53;22.93;;;;;;;4.94;84.91;102193.93;1695942;83;25740;-70
2021/11/15 03:01:18;;;;;;;57.38;21.02;;;;;;;4.92;84.84;102191.27;1692440;83;98842;-70
2021/11/15 03:03:44;;;;;;;54.98;21.48;;;;;;;4.88;84.80;102190.37;1694097;83;25808;-70
2021/11/15 03:06:11;;;;;;;57.00;21.05;;;;;;;4.88;84.89;102188.15;1689526;83;98897;-70
2021/11/15 03:08:39;;;;;;;60.20;23.02;;;;;;;4.91;84.91;102188.61;1692135;82;25703;-70
2021/11/15 03:11:07;;;;;;;57.13;23.27;;;;;;;4.93;84.95;102190.39;1684808;83;98864;-70
2021/11/15 03:13:38;;;;;;;59.63;23.77;;;;;;;4.94;84.89;102192.61;1695740;83;28839;-70
2021/11/15 03:16:06;;;;;;;55.67;20.92;;;;;;;4.92;84.85;102185.95;1693178;83;27232;-70
2021/11/15 03:18:37;;;;;;;57.62;22.90;;;;;;;4.92;84.86;102195.69;1690743;83;99031;-70
2021/11/15 03:21:18;;;;;;;57.85;23.62;;;;;;;4.91;84.89;102195.25;1687037;83;26479;-69
2021/11/15 03:23:46;;;;;;;;;;;;;;;4.89;84.90;102200.55;1714496;83;98915;-70
2021/11/15 03:26:13;;;;;;;61.58;22.50;;;;;;;4.91;84.95;102200.56;1717018;82;27327;-69
2021/11/15 03:28:43;;;;;;;55.30;22.58;;;;;;;4.90;84.99;102206.31;1713006;82;25795;-69
2021/11/15 03:31:18;;;;;;;64.95;24.63;;;;;;;4.88;84.84;102204.09;1713528;82;98585;-70
2021/11/15 03:33:44;;;;;;;58.00;22.73;;;;;;;4.85;84.90;102203.64;1685381;83;26433;-70
2021/11/15 03:36:10;;;;;;;48.40;20.17;;;;;;;4.86;84.98;102207.18;1714941;82;98731;-73
2021/11/15 03:38:36;;;;;;;65.57;24.35;;;;;;;4.85;84.90;102211.61;1701079;82;27390;-70
2021/11/15 03:41:04;;;;;;;63.13;23.62;;;;;;;4.81;84.87;102206.27;1699668;82;98873;-70
2021/11/15 03:43:31;;;;;;;61.28;24.75;;;;;;;4.80;84.91;102215.12;1700328;82;26587;-70
2021/11/15 03:45:57;;;;;;;58.08;23.32;;;;;;;4.80;85.00;102217.33;1697196;82;25775;-70
2021/11/15 03:48:23;;;;;;;59.23;23.10;;;;;;;4.83;85.00;102215.13;1693937;82;98851;-69
2021/11/15 03:50:54;;;;;;;63.08;24.47;;;;;;;4.82;84.98;102212.91;1700053;82;27558;-69
2021/11/15 03:53:17;;;;;;;57.65;24.23;;;;;;;4.82;84.99;102215.57;1698565;82;99015;-69
2021/11/15 03:55:43;;;;;;;62.88;24.47;;;;;;;4.85;85.07;102221.34;1699860;82;25814;-69
2021/11/15 03:58:09;;;;;;;61.23;24.37;;;;;;;4.86;85.00;102215.15;1706825;81;25731;-70
2021/11/15 04:00:39;;;;;;;61.40;24.60;;;;;;;4.85;85.05;102215.59;1747485;80;98733;-69
2021/11/15 04:03:16;;;;;;;63.73;26.27;;;;;;;4.87;85.08;102217.81;1682411;83;28081;-70
2021/11/15 04:05:38;;;;;;;69.15;24.65;;;;;;;4.87;85.03;102220.91;1747487;80;98845;-70
2021/11/15 04:08:07;;;;;;;60.80;23.55;;;;;;;4.87;85.07;102220.47;1753458;80;25714;-69
2021/11/15 04:10:38;;;;;;;66.17;24.43;;;;;;;4.86;85.02;102225.34;1748399;80;25784;-70
2021/11/15 04:13:17;;;;;;;58.83;25.05;;;;;;;4.88;85.10;102225.34;1747222;80;101561;-70
2021/11/15 04:15:47;;;;;;;63.17;24.45;;;;;;;4.85;84.96;102226.22;1750456;80;27109;-69
2021/11/15 04:18:16;;;;;;;61.48;24.55;;;;;;;4.78;84.90;102219.09;1746745;80;98785;-69
2021/11/15 04:20:43;;;;;;;67.27;24.40;;;;;;;4.77;85.03;102219.97;1751802;80;25927;-69
2021/11/15 04:23:10;;;;;;;68.57;26.77;;;;;;;4.81;85.10;102223.53;1742711;80;101430;-70
2021/11/15 04:25:38;;;;;;;68.30;26.65;;;;;;;4.79;85.13;102215.55;1745713;80;25858;-70
2021/11/15 04:28:05;;;;;;;57.13;24.65;;;;;;;4.82;85.15;102218.23;1749292;80;28052;-69
2021/11/15 04:30:31;;;;;;;63.15;25.45;;;;;;;4.82;85.13;102219.56;1742118;80;98763;-69
2021/11/15 04:33:00;;;;;;;70.10;27.20;;;;;;;4.81;85.09;102213.80;1743363;80;25806;-70
2021/11/15 04:35:27;;;;;;;64.58;25.90;;;;;;;4.83;85.17;102213.37;1740755;80;98986;-69
2021/11/15 04:37:53;;;;;;;68.12;28.47;;;;;;;4.86;85.16;102212.05;1744764;80;26425;-69
2021/11/15 04:40:19;;;;;;;67.70;26.97;;;;;;;4.86;85.19;102212.05;1712342;82;27378;-69
2021/11/15 04:42:45;;;;;;;67.30;26.12;;;;;;;4.87;85.13;102212.50;1744301;80;98878;-72
2021/11/15 04:45:12;;;;;;;64.07;26.27;;;;;;;4.85;85.12;102208.95;1750453;80;25765;-72
2021/11/15 04:47:39;;;;;;;66.33;27.05;;;;;;;4.87;85.17;102211.17;1723100;80;98793;-69
2021/11/15 04:50:07;;;;;;;71.35;27.50;;;;;;;4.89;85.22;102210.73;1751759;80;26749;-69
2021/11/15 04:52:33;;;;;;;68.80;27.17;;;;;;;4.91;85.19;102204.55;1715194;82;28184;-69
2021/11/15 04:54:59;;;;;;;66.70;26.68;;;;;;;4.93;85.19;102204.11;1740111;80;99193;-69
2021/11/15 04:57:26;;;;;;;71.37;27.15;;;;;;;4.92;85.13;102201.01;1725628;81;26342;-70
2021/11/15 04:59:53;;;;;;;72.80;27.32;;;;;;;4.87;85.13;102199.22;1729447;81;99273;-69
2021/11/15 05:02:19;;;;;;;73.72;27.42;;;;;;;4.88;85.17;102197.01;1753491;80;25728;-69
2021/11/15 05:04:45;;;;;;;71.82;27.65;;;;;;;4.90;85.21;102195.69;1742738;80;27406;-70
2021/11/15 05:07:12;;;;;;;73.30;28.02;;;;;;;4.86;85.21;102189.47;1725449;81;98851;-70
2021/11/15 05:09:38;;;;;;;69.17;26.30;;;;;;;4.92;85.15;102201.01;1724487;80;25684;-70
2021/11/15 05:12:05;;;;;;;71.50;26.05;;;;;;;4.93;85.19;102202.34;1713377;82;98728;-70
2021/11/15 05:14:31;;;;;;;66.92;26.90;;;;;;;4.93;85.17;102196.14;1745848;80;25699;-71
2021/11/15 05:16:57;;;;;;;71.72;28.05;;;;;;;4.91;85.14;102200.13;1727299;81;28032;-69
2021/11/15 05:19:23;;;;;;;68.25;27.85;;;;;;;4.93;85.17;102196.14;1714271;82;98867;-69
2021/11/15 05:21:49;;;;;;;70.45;27.50;;;;;;;4.94;85.20;102193.93;1717192;80;26555;-70
2021/11/15 05:24:15;;;;;;;77.32;28.70;;;;;;;4.94;85.20;102193.93;1713598;80;98764;-69
2021/11/15 05:26:40;;;;;;;77.42;28.52;;;;;;;4.97;85.19;102196.61;1727991;80;26431;-70
2021/11/15 05:29:07;;;;;;;72.27;28.35;;;;;;;4.95;85.15;102193.05;1726202;81;98941;-69
2021/11/15 05:31:34;;;;;;;65.05;28.57;;;;;;;4.94;85.18;102192.61;1727874;81;26420;-69
2021/11/15 05:34:03;;;;;;;70.80;29.20;;;;;;;4.94;85.17;102190.84;1720569;80;26493;-69
2021/11/15 05:36:29;;;;;;;71.17;27.85;;;;;;;4.92;85.15;102187.72;1722339;80;98698;-69
2021/11/15 05:38:56;;;;;;;65.80;27.60;;;;;;;4.91;85.15;102188.16;1749481;80;25747;-69
2021/11/15 05:41:22;;;;;;;76.95;28.98;;;;;;;4.89;85.12;102192.58;1723426;80;98904;-69
2021/11/15 05:43:47;;;;;;;69.72;28.38;;;;;;;4.89;85.17;102193.91;1720980;80;25813;-69
2021/11/15 05:46:13;;;;;;;73.92;27.55;;;;;;;4.91;85.21;102192.59;1698122;82;25814;-69
2021/11/15 05:48:39;;;;;;;71.53;28.60;;;;;;;4.89;85.16;102190.81;1729322;80;98904;-69
2021/11/15 05:51:05;;;;;;;68.45;28.60;;;;;;;4.91;85.23;102197.46;1727261;80;25766;-69
2021/11/15 05:53:31;;;;;;;70.52;28.52;;;;;;;4.88;85.14;102191.70;1693532;82;99009;-69
2021/11/15 05:55:57;;;;;;;68.52;29.67;;;;;;;4.89;85.22;102194.80;1742221;80;25775;-69
2021/11/15 05:58:23;;;;;;;80.67;31.35;;;;;;;4.94;85.29;102195.27;1745234;80;25758;-69
2021/11/15 06:00:49;;;;;;;65.65;28.80;;;;;;;4.97;85.29;102200.59;1742926;80;98756;-70
2021/11/15 06:03:15;;;;;;;74.80;28.92;;;;;;;4.96;85.18;102201.03;1748970;80;25789;-70
2021/11/15 06:05:41;;;;;;;78.37;30.35;;;;;;;4.91;85.12;102201.45;1747065;80;98888;-70
2021/11/15 06:08:07;;;;;;;78.37;30.52;;;;;;;4.90;85.23;102204.98;1751281;80;25817;-69
2021/11/15 06:10:34;;;;;;;74.00;30.10;;;;;;;4.93;85.30;102209.43;1749390;80;25803;-70
2021/11/15 06:13:00;;;;;;;72.27;29.75;;;;;;;4.96;85.27;102210.77;1747181;80;98647;-70
2021/11/15 06:15:26;;;;;;;77.72;29.72;;;;;;;4.92;85.19;102210.31;1750068;80;25839;-69
2021/11/15 06:17:52;;;;;;;80.83;31.60;;;;;;;4.91;85.20;102217.83;1751446;80;98633;-70
2021/11/15 06:20:19;;;;;;;75.40;30.82;;;;;;;4.91;85.27;102218.72;1747898;80;25820;-70
2021/11/15 06:22:46;;;;;;;77.97;30.00;;;;;;;4.88;85.24;102219.59;1746361;80;25852;-70
2021/11/15 06:25:15;;;;;;;73.70;31.40;;;;;;;4.91;85.29;102220.48;1718451;81;98715;-69
2021/11/15 06:27:42;;;;;;;70.95;30.95;;;;;;;4.91;85.26;102220.05;1737482;80;25803;-70
2021/11/15 06:30:12;;;;;;;82.50;32.03;;;;;;;4.95;85.32;102221.84;1738270;80;98800;-70
2021/11/15 06:32:38;;;;;;;79.17;30.82;;;;;;;4.98;85.34;102227.61;1740237;80;25833;-70
2021/11/15 06:35:06;;;;;;;81.60;30.48;;;;;;;4.99;85.38;102222.30;1733155;80;98938;-73
2021/11/15 06:37:32;;;;;;;75.97;28.73;;;;;;;5.01;85.35;102227.19;1737769;80;25766;-70
2021/11/15 06:39:58;;;;;;;84.47;32.05;;;;;;;5.03;85.35;102223.20;1736013;80;25739;-70
2021/11/15 06:42:24;;;;;;;82.30;31.42;;;;;;;5.04;85.37;102229.86;1736955;80;98711;-70
2021/11/15 06:44:49;;;;;;;83.58;32.20;;;;;;;5.05;85.32;102226.75;1734886;80;26117;-71
2021/11/15 06:47:15;;;;;;;83.52;31.25;;;;;;;5.06;85.34;102228.53;1738338;80;98917;-71
2021/11/15 06:49:41;;;;;;;79.72;30.57;;;;;;;5.04;85.33;102235.61;1738063;80;27926;-70
2021/11/15 06:52:07;;;;;;;73.55;30.43;;;;;;;5.05;85.34;102233.40;1739124;80;25778;-69
2021/11/15 06:54:33;;;;;;;77.80;31.05;;;;;;;5.06;85.33;102232.52;1740366;80;98729;-70
2021/11/15 06:56:59;;;;;;;78.72;31.68;;;;;;;5.05;85.33;102232.08;1739144;80;25756;-70
2021/11/15 06:59:25;;;;;;;77.78;30.10;;;;;;;5.06;85.37;102233.84;1737985;80;99015;-71
2021/11/15 07:01:51;;;;;;;75.28;30.72;;;;;;;5.07;85.37;102231.64;1739016;80;26231;-72
2021/11/15 07:04:17;;;;;;;72.97;30.32;;;;;;;5.06;85.36;102234.73;1739520;80;25880;-69
2021/11/15 07:06:43;;;;;;;73.15;32.23;;;;;;;5.09;85.43;102238.73;1739241;80;98683;-70
2021/11/15 07:09:11;;;;;;;80.32;32.25;;;;;;;5.13;85.45;102238.31;1739779;80;25792;-70
2021/11/15 07:11:38;;;;;;;81.47;30.35;;;;;;;5.15;85.46;102238.77;1738796;80;98949;-70
2021/11/15 07:14:06;;;;;;;73.17;29.82;;;;;;;5.16;85.42;102238.33;1741330;80;25819;-70
2021/11/15 07:16:32;;;;;;;75.80;27.48;;;;;;;5.13;85.37;102235.22;1738199;80;25796;-68
2021/11/15 07:18:58;;;;;;;73.02;29.40;;;;;;;5.12;85.39;102238.75;1738847;80;98633;-69
2021/11/15 07:21:24;;;;;;;69.50;28.38;;;;;;;5.14;85.41;102237.43;1741046;80;26234;-70
2021/11/15 07:23:51;;;;;;;69.47;27.27;;;;;;;5.14;85.41;102242.30;1739861;80;98762;-70
2021/11/15 07:26:22;;;;;;;78.97;31.10;;;;;;;5.11;85.35;102243.62;1737489;80;26530;-71
2021/11/15 07:28:50;;;;;;;80.53;29.63;;;;;;;5.10;85.40;102243.61;1733923;80;25770;-70
2021/11/15 07:31:16;;;;;;;80.67;29.27;;;;;;;5.10;85.43;102240.52;1741569;80;98789;-70
2021/11/15 07:33:42;;;;;;;63.55;27.05;;;;;;;5.11;85.42;102244.95;1741444;80;26069;-68
2021/11/15 07:36:10;;;;;;;74.65;30.23;;;;;;;5.10;85.34;102247.59;1738822;80;98767;-70
2021/11/15 07:38:36;;;;;;;70.75;28.90;;;;;;;5.12;85.50;102237.86;1741354;80;26529;-72
2021/11/15 07:41:02;;;;;;;76.17;30.68;;;;;;;5.14;85.52;102244.96;1740639;80;98969;-71
2021/11/15 07:43:28;;;;;;;66.67;28.35;;;;;;;5.14;85.46;102242.75;1742847;80;27396;-70
2021/11/15 07:45:54;;;;;;;73.05;28.77;;;;;;;5.12;85.35;102233.87;1721180;80;25719;-70
2021/11/15 07:48:20;;;;;;;70.60;30.70;;;;;;;5.09;85.44;102232.53;1722854;81;98887;-69
2021/11/15 07:50:47;;;;;;;75.05;32.25;;;;;;;5.09;85.46;102237.41;1738774;80;26429;-69
2021/11/15 07:53:14;;;;;;;74.10;29.85;;;;;;;5.13;85.50;102240.97;1702745;82;98816;-71
2021/11/15 07:55:42;;;;;;;69.65;29.95;;;;;;;5.13;85.49;102240.53;1733692;80;27452;-71
2021/11/15 07:58:11;;;;;;;68.28;28.73;;;;;;;5.15;85.52;102236.11;1729840;80;26099;-72
2021/11/15 08:00:38;;;;;;;71.35;27.95;;;;;;;5.18;85.52;102237.89;1706773;82;98853;-72
2021/11/15 08:03:06;;;;;;;62.25;27.87;;;;;;;5.18;85.50;102238.78;1739211;80;26845;-72
2021/11/15 08:05:33;;;;;;;77.53;28.98;;;;;;;5.23;85.58;102241.42;1689973;83;98823;-71
2021/11/15 08:08:00;;;;;;;65.60;27.37;;;;;;;5.29;85.59;102242.78;1742900;80;28144;-71
2021/11/15 08:10:26;;;;;;;63.38;26.45;;;;;;;5.33;85.60;102243.23;1722244;81;25792;-71
2021/11/15 08:12:56;;;;;;;57.55;24.90;;;;;;;5.36;85.60;102243.25;1735958;80;99028;-72
2021/11/15 08:15:25;;;;;;;70.55;26.33;;;;;;;5.38;85.56;102242.81;1736699;80;25816;-72
2021/11/15 08:17:55;;;;;;;65.57;25.57;;;;;;;5.42;85.60;102241.05;1738454;80;98762;-73
2021/11/15 08:20:29;;;;;;;55.90;23.50;;;;;;;5.43;85.54;102241.50;1741175;80;27674;-71
2021/11/15 08:23:00;;;;;;;69.50;27.93;;;;;;;5.44;85.50;102238.84;1737903;80;26627;-70
2021/11/15 08:25:57;;;;;;;57.13;24.35;;;;;;;5.44;85.52;102241.50;1743569;80;97823;-72
2021/11/15 08:28:26;;;;;;;51.85;24.30;;;;;;;5.46;85.52;102241.06;1743973;80;25973;-72
2021/11/15 08:30:54;;;;;;;49.23;21.48;;;;;;;5.47;85.49;102238.85;1747202;80;98789;-74
2021/11/15 08:33:21;;;;;;;49.48;21.48;;;;;;;5.46;85.48;102238.84;1739821;80;27464;-72
2021/11/15 08:35:48;;;;;;;52.50;22.15;;;;;;;5.43;85.38;102243.71;1725882;81;98911;-71
2021/11/15 08:38:40;;;;;;;52.45;21.62;;;;;;;5.38;85.42;102233.50;1694553;82;25857;-70
2021/11/15 08:41:06;;;;;;;47.75;21.87;;;;;;;5.43;85.42;102238.39;1746880;80;98992;-72
2021/11/15 08:43:36;;;;;;;52.62;22.87;;;;;;;5.43;85.44;102234.84;1745592;80;26472;-73
2021/11/15 08:46:03;;;;;;;49.03;20.32;;;;;;;5.44;85.37;102226.87;1743310;80;27398;-72
2021/11/15 08:48:28;;;;;;;49.00;21.85;;;;;;;5.47;85.44;102227.33;1722617;81;98662;-71
2021/11/15 08:50:54;;;;;;;43.65;21.25;;;;;;;5.48;85.34;102231.32;1729064;81;25815;-70
2021/11/15 08:53:20;;;;;;;54.20;25.32;;;;;;;5.49;85.29;102234.87;1724857;81;98859;-69
2021/11/15 08:55:46;;;;;;;50.05;21.05;;;;;;;5.48;85.31;102235.75;1730176;81;25861;-71
2021/11/15 08:58:12;;;;;;;47.95;23.38;;;;;;;5.52;85.36;102226.45;1726073;81;27456;-71
2021/11/15 09:00:42;;;;;;;53.52;23.30;;;;;;;5.57;85.35;102228.23;1723289;80;97959;-70
2021/11/15 09:03:06;;;;;;;46.37;20.57;;;;;;;5.64;85.40;102230.03;1746474;80;25736;-72
2021/11/15 09:05:32;;;;;;;40.23;19.55;;;;;;;5.70;85.39;102235.36;1712657;82;99267;-73
2021/11/15 09:07:58;;;;;;;45.70;20.68;;;;;;;5.74;85.33;102231.38;1730034;80;25374;-72
2021/11/15 09:10:24;;;;;;;41.75;18.98;;;;;;;5.75;85.27;102226.95;1744328;80;28236;-72
2021/11/15 09:12:50;;;;;;;43.20;20.32;;;;;;;5.79;85.23;102226.07;1721725;81;99025;-71
2021/11/15 09:15:17;;;;;;;47.00;21.45;;;;;;;5.78;85.17;102230.95;1750377;80;25729;-71
2021/11/15 09:17:45;;;;;;;43.87;19.07;;;;;;;5.82;85.18;102235.39;1707447;82;98923;-70
2021/11/15 09:20:12;;;;;;;47.58;21.20;;;;;;;5.83;85.13;102233.17;1691610;82;25736;-69
2021/11/15 09:22:40;;;;;;;39.55;18.60;;;;;;;5.81;85.09;102234.94;1722022;80;27450;-71
2021/11/15 09:25:09;;;;;;;43.08;18.00;;;;;;;5.81;85.06;102231.84;1729053;80;98809;-69
2021/11/15 09:27:37;;;;;;;39.65;18.90;;;;;;;5.81;85.01;102228.29;1725485;81;26144;-70
2021/11/15 09:30:06;;;;;;;41.50;19.30;;;;;;;5.76;84.92;102236.70;1724533;81;98721;-70
2021/11/15 09:32:32;;;;;;;43.42;20.35;;;;;;;5.72;84.88;102246.90;1725745;81;26602;-69
2021/11/15 09:34:58;;;;;;;47.60;22.35;;;;;;;5.71;84.88;102232.70;1726999;81;27401;-69
2021/11/15 09:37:24;;;;;;;47.13;19.75;;;;;;;5.69;84.84;102241.13;1725427;81;98391;-69
2021/11/15 09:39:50;;;;;;;44.10;20.60;;;;;;;5.69;84.85;102235.80;1726157;81;25704;-69
2021/11/15 09:42:17;;;;;;;45.55;20.37;;;;;;;5.70;84.83;102238.02;1690582;83;99129;-71
2021/11/15 09:44:44;;;;;;;42.43;19.02;;;;;;;5.68;84.73;102239.80;1692132;83;25744;-70
2021/11/15 09:47:11;;;;;;;44.83;19.37;;;;;;;5.67;84.69;102246.00;1721108;81;98956;-70
2021/11/15 09:49:37;;;;;;;44.90;19.57;;;;;;;5.60;84.59;102239.77;1723365;81;26336;-72
2021/11/15 09:52:06;;;;;;;41.75;18.12;;;;;;;5.57;84.56;102236.22;1721987;81;25868;-70
2021/11/15 09:54:32;;;;;;;45.28;19.55;;;;;;;5.53;84.56;102229.56;1718012;81;98960;-71
2021/11/15 09:56:58;;;;;;;39.42;18.02;;;;;;;5.54;84.56;102226.46;1722310;81;25740;-70
2021/11/15 09:59:28;;;;;;;43.73;19.92;;;;;;;5.53;84.49;102226.91;1720405;81;99037;-71
2021/11/15 10:01:54;;;;;;;44.30;19.75;;;;;;;5.55;84.44;102225.13;1719748;81;26141;-73
2021/11/15 10:04:22;;;;;;;40.10;19.50;;;;;;;5.55;84.43;102226.91;1723845;81;28020;-71
2021/11/15 10:06:52;;;;;;;38.08;18.25;;;;;;;5.54;84.38;102222.47;1723065;81;98698;-71
2021/11/15 10:09:38;;;;;;;37.80;18.77;;;;;;;5.55;84.37;102229.13;1723320;81;25957;-72
2021/11/15 10:12:14;;;;;;;45.52;20.70;;;;;;;5.57;84.33;102228.23;1723475;81;99017;-71
2021/11/15 10:15:05;;;;;;;47.65;19.48;;;;;;;5.60;84.31;102229.58;1725921;81;25755;-71
2021/11/15 10:17:40;;;;;;;46.70;20.60;;;;;;;5.62;84.26;102223.81;1717902;81;98729;-72
2021/11/15 10:20:07;;;;;;;53.25;22.65;;;;;;;5.64;84.24;102217.62;1723409;81;25790;-72
2021/11/15 10:22:33;;;;;;;47.23;22.13;;;;;;;5.62;84.12;102212.73;1675787;82;25866;-71
2021/11/15 10:24:59;;;;;;;44.98;19.98;;;;;;;5.64;84.15;102216.73;1719376;81;99002;-72
2021/11/15 10:27:28;;;;;;;45.58;21.25;;;;;;;5.69;84.21;102217.63;1720642;81;25853;-69
2021/11/15 10:29:53;;;;;;;54.33;22.62;;;;;;;5.65;83.98;102216.73;1717326;81;98756;-72
2021/11/15 10:32:28;;;;;;;56.80;22.42;;;;;;;5.62;83.93;102215.39;1719596;81;26469;-72
2021/11/15 10:35:01;;;;;;;48.78;22.07;;;;;;;5.63;83.97;102209.63;1719996;81;25760;-71
2021/11/15 10:37:30;;;;;;;47.88;21.48;;;;;;;5.67;84.01;102213.63;1714861;81;98644;-71
2021/11/15 10:40:11;;;;;;;51.77;23.07;;;;;;;5.68;83.90;102209.20;1722725;81;25807;-72
2021/11/15 10:42:50;;;;;;;44.83;22.60;;;;;;;5.69;83.87;102212.30;1718644;81;98667;-71
2021/11/15 10:45:23;;;;;;;45.12;22.15;;;;;;;5.72;83.91;102210.98;1719309;81;25758;-73
2021/11/15 10:47:56;;;;;;;46.18;21.52;;;;;;;5.69;83.81;102210.98;1720076;81;98914;-73
2021/11/15 10:50:45;;;;;;;51.18;23.20;;;;;;;5.69;83.79;102209.20;1718543;81;27434;-71
2021/11/15 10:53:22;;;;;;;50.90;22.62;;;;;;;5.66;83.74;102212.30;1718756;81;98915;-74
2021/11/15 10:56:18;;;;;;;56.98;22.82;;;;;;;5.67;83.78;102204.77;1723060;81;25784;-72
2021/11/15 10:58:43;;;;;;;58.68;23.70;;;;;;;5.71;83.79;102205.22;1719384;81;26591;-72
2021/11/15 11:01:11;;;;;;;57.55;25.48;;;;;;;5.75;83.80;102206.99;1721600;81;98782;-73
2021/11/15 11:03:39;;;;;;;60.65;26.82;;;;;;;5.73;83.63;102203.45;1723062;81;27386;-71
2021/11/15 11:06:11;;;;;;;60.88;25.50;;;;;;;5.69;83.52;102206.98;1722434;81;98773;-73
2021/11/15 11:08:44;;;;;;;58.73;25.30;;;;;;;5.69;83.59;102215.86;1678897;83;25731;-71
2021/11/15 11:11:29;;;;;;;57.50;25.40;;;;;;;5.71;83.60;102212.75;1719312;81;98850;-72
2021/11/15 11:14:07;;;;;;;53.73;24.63;;;;;;;5.72;83.58;102213.64;1720244;81;26647;-74
2021/11/15 11:16:45;;;;;;;50.65;22.98;;;;;;;5.72;83.52;102210.53;1720734;81;28727;-71
2021/11/15 11:24:57;;;;;;;58.73;26.15;;;;;;;5.78;83.52;102199.02;1719071;81;98777;-72